New Scone, United Kingdom
Current Conditions -  °F | °C
As of 10:20 AM on Saturday 25 Oct 2014 (Local Time) from EGPN Reporting Station
Rain Showers Rain Showers  
Wind Chill: 52°   Ceiling: 1700
Heat Index: 52°   Visibility: 6mi
Dew Point: 48°   Wind: 25mph
Humidity: 88%   Direction: 230°SW
Pressure: 29.62"   Gusts: NA
Location:  56.42°N, 3.41°W
Report Text: EGPN 250920Z 23022KT 9999 VCSH BKN017 11/09 Q1003
Loading
Personal Weather Stations






























Interactive Weather Map
Tropical Storm Tracking
New forecast layout! Learn more

10-Day Weather Forecast

Advertisements
Track Severe Weather on mobile